sensor_id;sensor_type;location;lat;lon;timestamp;temperature;humidity
21830;DHT22;11077;50.264;6.798;2022-12-10T00:00:34;-1.00;99.90
21830;DHT22;11077;50.264;6.798;2022-12-10T00:03:03;-1.00;99.90
21830;DHT22;11077;50.264;6.798;2022-12-10T00:05:33;-1.00;99.90
21830;DHT22;11077;50.264;6.798;2022-12-10T00:08:00;-1.10;99.90
21830;DHT22;11077;50.264;6.798;2022-12-10T00:10:27;-1.10;99.90
21830;DHT22;11077;50.264;6.798;2022-12-10T00:12:56;-1.10;99.90
21830;DHT22;11077;50.264;6.798;2022-12-10T00:15:23;-1.20;99.90
21830;DHT22;11077;50.264;6.798;2022-12-10T00:17:50;-1.20;99.90
21830;DHT22;11077;50.264;6.798;2022-12-10T00:20:18;-1.20;99.90
21830;DHT22;11077;50.264;6.798;2022-12-10T00:22:45;-1.30;99.90
21830;DHT22;11077;50.264;6.798;2022-12-10T00:25:13;-1.30;99.90
21830;DHT22;11077;50.264;6.798;2022-12-10T00:27:40;-1.30;99.90
21830;DHT22;11077;50.264;6.798;2022-12-10T00:30:08;-1.40;99.90
21830;DHT22;11077;50.264;6.798;2022-12-10T00:32:35;-1.40;99.90
21830;DHT22;11077;50.264;6.798;2022-12-10T00:35:02;-1.40;99.90
21830;DHT22;11077;50.264;6.798;2022-12-10T00:37:32;-1.50;99.90
21830;DHT22;11077;50.264;6.798;2022-12-10T00:40:00;-1.40;99.90
21830;DHT22;11077;50.264;6.798;2022-12-10T00:42:27;-1.60;99.90
21830;DHT22;11077;50.264;6.798;2022-12-10T00:44:54;-1.60;99.90
21830;DHT22;11077;50.264;6.798;2022-12-10T00:47:22;-1.60;99.90
21830;DHT22;11077;50.264;6.798;2022-12-10T00:49:49;-1.70;99.90
21830;DHT22;11077;50.264;6.798;2022-12-10T00:52:17;-1.70;99.90
21830;DHT22;11077;50.264;6.798;2022-12-10T00:54:45;-1.80;99.90
21830;DHT22;11077;50.264;6.798;2022-12-10T00:57:12;-1.90;99.90
21830;DHT22;11077;50.264;6.798;2022-12-10T00:59:39;-1.90;99.90
21830;DHT22;11077;50.264;6.798;2022-12-10T01:02:07;-1.90;99.90
21830;DHT22;11077;50.264;6.798;2022-12-10T01:04:34;-1.90;99.90
21830;DHT22;11077;50.264;6.798;2022-12-10T01:07:01;-1.80;99.90
21830;DHT22;11077;50.264;6.798;2022-12-10T01:09:30;-2.00;99.90
21830;DHT22;11077;50.264;6.798;2022-12-10T01:12:01;-2.10;99.90
21830;DHT22;11077;50.264;6.798;2022-12-10T01:14:31;-2.10;99.90
21830;DHT22;11077;50.264;6.798;2022-12-10T01:17:00;-2.00;99.90
21830;DHT22;11077;50.264;6.798;2022-12-10T01:19:29;-1.90;99.90
21830;DHT22;11077;50.264;6.798;2022-12-10T01:21:56;-2.10;99.90
21830;DHT22;11077;50.264;6.798;2022-12-10T01:24:25;-2.20;99.90
21830;DHT22;11077;50.264;6.798;2022-12-10T01:26:53;-2.20;99.90
21830;DHT22;11077;50.264;6.798;2022-12-10T01:29:22;-2.10;99.90
21830;DHT22;11077;50.264;6.798;2022-12-10T01:31:51;-2.20;99.90
21830;DHT22;11077;50.264;6.798;2022-12-10T01:34:19;-2.30;99.90
21830;DHT22;11077;50.264;6.798;2022-12-10T01:36:50;-2.30;99.90
21830;DHT22;11077;50.264;6.798;2022-12-10T01:39:19;-2.30;99.90
21830;DHT22;11077;50.264;6.798;2022-12-10T01:41:48;-2.30;99.90
21830;DHT22;11077;50.264;6.798;2022-12-10T01:47:23;-2.40;99.90
21830;DHT22;11077;50.264;6.798;2022-12-10T01:49:50;-2.40;99.90
21830;DHT22;11077;50.264;6.798;2022-12-10T01:52:18;-2.50;99.90
21830;DHT22;11077;50.264;6.798;2022-12-10T01:54:46;-2.40;99.90
21830;DHT22;11077;50.264;6.798;2022-12-10T01:57:16;-2.50;99.90
21830;DHT22;11077;50.264;6.798;2022-12-10T01:59:45;-2.50;99.90
21830;DHT22;11077;50.264;6.798;2022-12-10T02:02:19;-2.50;99.90
21830;DHT22;11077;50.264;6.798;2022-12-10T02:05:02;-2.60;99.90
21830;DHT22;11077;50.264;6.798;2022-12-10T02:07:39;-2.60;99.90
21830;DHT22;11077;50.264;6.798;2022-12-10T02:10:19;-2.60;99.90
21830;DHT22;11077;50.264;6.798;2022-12-10T02:12:51;-2.60;99.90
21830;DHT22;11077;50.264;6.798;2022-12-10T02:15:23;-2.50;99.90
21830;DHT22;11077;50.264;6.798;2022-12-10T02:17:54;-2.60;99.90
21830;DHT22;11077;50.264;6.798;2022-12-10T02:20:26;-2.60;99.90
21830;DHT22;11077;50.264;6.798;2022-12-10T02:22:58;-2.60;99.90
21830;DHT22;11077;50.264;6.798;2022-12-10T02:25:34;-2.60;99.90
21830;DHT22;11077;50.264;6.798;2022-12-10T02:28:09;-2.60;99.90
21830;DHT22;11077;50.264;6.798;2022-12-10T02:30:39;-2.50;99.90
21830;DHT22;11077;50.264;6.798;2022-12-10T02:33:08;-2.50;99.90
21830;DHT22;11077;50.264;6.798;2022-12-10T02:35:36;-2.60;99.90
21830;DHT22;11077;50.264;6.798;2022-12-10T02:38:11;-2.50;99.90
21830;DHT22;11077;50.264;6.798;2022-12-10T02:40:44;-2.60;99.90
21830;DHT22;11077;50.264;6.798;2022-12-10T02:43:12;-2.50;99.90
21830;DHT22;11077;50.264;6.798;2022-12-10T02:45:42;-2.40;99.90
21830;DHT22;11077;50.264;6.798;2022-12-10T02:48:13;-2.40;99.90
21830;DHT22;11077;50.264;6.798;2022-12-10T02:50:42;-2.50;99.90
21830;DHT22;11077;50.264;6.798;2022-12-10T02:53:09;-2.40;99.90
21830;DHT22;11077;50.264;6.798;2022-12-10T02:55:51;-2.40;99.90
21830;DHT22;11077;50.264;6.798;2022-12-10T02:58:25;-2.40;99.90
21830;DHT22;11077;50.264;6.798;2022-12-10T03:01:01;-2.40;99.90
21830;DHT22;11077;50.264;6.798;2022-12-10T03:03:37;-2.40;99.90
21830;DHT22;11077;50.264;6.798;2022-12-10T03:06:12;-2.20;99.90
21830;DHT22;11077;50.264;6.798;2022-12-10T03:08:48;-2.30;99.90
21830;DHT22;11077;50.264;6.798;2022-12-10T03:11:17;-2.30;99.90
21830;DHT22;11077;50.264;6.798;2022-12-10T03:13:51;-2.30;99.90
21830;DHT22;11077;50.264;6.798;2022-12-10T03:16:20;-2.20;99.90
21830;DHT22;11077;50.264;6.798;2022-12-10T03:18:52;-2.10;99.90
21830;DHT22;11077;50.264;6.798;2022-12-10T03:21:20;-2.30;99.90
21830;DHT22;11077;50.264;6.798;2022-12-10T03:23:51;-2.20;99.90
21830;DHT22;11077;50.264;6.798;2022-12-10T03:26:20;-2.30;99.90
21830;DHT22;11077;50.264;6.798;2022-12-10T03:28:51;-2.40;99.90
21830;DHT22;11077;50.264;6.798;2022-12-10T03:31:21;-2.00;99.90
21830;DHT22;11077;50.264;6.798;2022-12-10T03:33:49;-2.00;99.90
21830;DHT22;11077;50.264;6.798;2022-12-10T03:36:17;-2.20;99.90
21830;DHT22;11077;50.264;6.798;2022-12-10T03:38:45;-2.20;99.90
21830;DHT22;11077;50.264;6.798;2022-12-10T03:41:13;-2.20;99.90
21830;DHT22;11077;50.264;6.798;2022-12-10T03:43:51;-2.10;99.90
21830;DHT22;11077;50.264;6.798;2022-12-10T03:46:18;-2.20;99.90
21830;DHT22;11077;50.264;6.798;2022-12-10T03:48:47;-2.20;99.90
21830;DHT22;11077;50.264;6.798;2022-12-10T03:51:14;-2.20;99.90
21830;DHT22;11077;50.264;6.798;2022-12-10T03:53:41;-2.10;99.90
21830;DHT22;11077;50.264;6.798;2022-12-10T03:56:09;-2.20;99.90
21830;DHT22;11077;50.264;6.798;2022-12-10T03:58:36;-2.20;99.90
21830;DHT22;11077;50.264;6.798;2022-12-10T04:01:03;-2.00;99.90
21830;DHT22;11077;50.264;6.798;2022-12-10T04:03:33;-2.20;99.90
21830;DHT22;11077;50.264;6.798;2022-12-10T04:06:04;-2.20;99.90
21830;DHT22;11077;50.264;6.798;2022-12-10T04:08:31;-2.20;99.90
21830;DHT22;11077;50.264;6.798;2022-12-10T04:11:03;-2.20;99.90
21830;DHT22;11077;50.264;6.798;2022-12-10T04:13:32;-2.20;99.90
21830;DHT22;11077;50.264;6.798;2022-12-10T04:16:17;-2.20;99.90
21830;DHT22;11077;50.264;6.798;2022-12-10T04:18:58;-2.20;99.90
21830;DHT22;11077;50.264;6.798;2022-12-10T04:21:28;-2.20;99.90
21830;DHT22;11077;50.264;6.798;2022-12-10T04:24:14;-2.10;99.90
21830;DHT22;11077;50.264;6.798;2022-12-10T04:27:02;-2.10;99.90
21830;DHT22;11077;50.264;6.798;2022-12-10T04:29:31;-2.00;99.90
21830;DHT22;11077;50.264;6.798;2022-12-10T04:31:58;-2.10;99.90
21830;DHT22;11077;50.264;6.798;2022-12-10T04:34:26;-2.10;99.90
21830;DHT22;11077;50.264;6.798;2022-12-10T04:36:56;-2.10;99.90
21830;DHT22;11077;50.264;6.798;2022-12-10T04:39:23;-2.20;99.90
21830;DHT22;11077;50.264;6.798;2022-12-10T04:41:51;-2.10;99.90
21830;DHT22;11077;50.264;6.798;2022-12-10T04:44:19;-2.10;99.90
21830;DHT22;11077;50.264;6.798;2022-12-10T04:46:46;-2.20;99.90
21830;DHT22;11077;50.264;6.798;2022-12-10T04:49:15;-2.10;99.90
21830;DHT22;11077;50.264;6.798;2022-12-10T04:51:42;-2.20;99.90
21830;DHT22;11077;50.264;6.798;2022-12-10T04:54:11;-2.20;99.90
21830;DHT22;11077;50.264;6.798;2022-12-10T04:56:38;-2.10;99.90
21830;DHT22;11077;50.264;6.798;2022-12-10T04:59:06;-2.20;99.90
21830;DHT22;11077;50.264;6.798;2022-12-10T05:01:33;-2.20;99.90
21830;DHT22;11077;50.264;6.798;2022-12-10T05:04:02;-2.20;99.90
21830;DHT22;11077;50.264;6.798;2022-12-10T05:06:30;-2.20;99.90
21830;DHT22;11077;50.264;6.798;2022-12-10T05:08:57;-2.20;99.90
21830;DHT22;11077;50.264;6.798;2022-12-10T05:11:28;-2.10;99.90
21830;DHT22;11077;50.264;6.798;2022-12-10T05:13:56;-2.00;99.90
21830;DHT22;11077;50.264;6.798;2022-12-10T05:16:25;-2.10;99.90
21830;DHT22;11077;50.264;6.798;2022-12-10T05:18:53;-2.10;99.90
21830;DHT22;11077;50.264;6.798;2022-12-10T05:21:22;-2.20;99.90
21830;DHT22;11077;50.264;6.798;2022-12-10T05:23:51;-2.10;99.90
21830;DHT22;11077;50.264;6.798;2022-12-10T05:26:19;-2.10;99.90
21830;DHT22;11077;50.264;6.798;2022-12-10T05:28:49;-1.80;99.90
21830;DHT22;11077;50.264;6.798;2022-12-10T05:31:20;-2.20;99.90
21830;DHT22;11077;50.264;6.798;2022-12-10T05:33:48;-2.10;99.90
21830;DHT22;11077;50.264;6.798;2022-12-10T05:36:17;-1.80;99.90
21830;DHT22;11077;50.264;6.798;2022-12-10T05:38:44;-2.00;99.90
21830;DHT22;11077;50.264;6.798;2022-12-10T05:41:13;-2.00;99.90
21830;DHT22;11077;50.264;6.798;2022-12-10T05:43:41;-2.10;99.90
21830;DHT22;11077;50.264;6.798;2022-12-10T05:46:12;-2.10;99.90
21830;DHT22;11077;50.264;6.798;2022-12-10T05:48:39;-2.10;99.90
21830;DHT22;11077;50.264;6.798;2022-12-10T05:51:10;-2.10;99.90
21830;DHT22;11077;50.264;6.798;2022-12-10T05:53:38;-2.20;99.90
21830;DHT22;11077;50.264;6.798;2022-12-10T05:56:08;-2.20;99.90
21830;DHT22;11077;50.264;6.798;2022-12-10T05:58:37;-2.20;99.90
21830;DHT22;11077;50.264;6.798;2022-12-10T06:01:07;-2.20;99.90
21830;DHT22;11077;50.264;6.798;2022-12-10T06:03:36;-2.20;99.90
21830;DHT22;11077;50.264;6.798;2022-12-10T06:06:03;-2.20;99.90
21830;DHT22;11077;50.264;6.798;2022-12-10T06:08:31;-2.20;99.90
21830;DHT22;11077;50.264;6.798;2022-12-10T06:11:00;-2.10;99.90
21830;DHT22;11077;50.264;6.798;2022-12-10T06:13:28;-2.30;99.90
21830;DHT22;11077;50.264;6.798;2022-12-10T06:15:55;-2.10;99.90
21830;DHT22;11077;50.264;6.798;2022-12-10T06:18:22;-2.30;99.90
21830;DHT22;11077;50.264;6.798;2022-12-10T06:20:51;-2.30;99.90
21830;DHT22;11077;50.264;6.798;2022-12-10T06:23:18;-2.30;99.90
21830;DHT22;11077;50.264;6.798;2022-12-10T06:25:45;-2.30;99.90
21830;DHT22;11077;50.264;6.798;2022-12-10T06:28:12;-2.30;99.90
21830;DHT22;11077;50.264;6.798;2022-12-10T06:30:39;-2.30;99.90
21830;DHT22;11077;50.264;6.798;2022-12-10T06:33:07;-2.30;99.90
21830;DHT22;11077;50.264;6.798;2022-12-10T06:35:34;-2.30;99.90
21830;DHT22;11077;50.264;6.798;2022-12-10T06:38:03;-2.30;99.90
21830;DHT22;11077;50.264;6.798;2022-12-10T06:40:30;-2.30;99.90
21830;DHT22;11077;50.264;6.798;2022-12-10T06:42:59;-2.30;99.90
21830;DHT22;11077;50.264;6.798;2022-12-10T06:45:27;-2.30;99.90
21830;DHT22;11077;50.264;6.798;2022-12-10T06:47:54;-2.30;99.90
21830;DHT22;11077;50.264;6.798;2022-12-10T06:50:21;-2.20;99.90
21830;DHT22;11077;50.264;6.798;2022-12-10T06:52:50;-2.30;99.90
21830;DHT22;11077;50.264;6.798;2022-12-10T06:55:19;-2.20;99.90
21830;DHT22;11077;50.264;6.798;2022-12-10T06:57:46;-2.30;99.90
21830;DHT22;11077;50.264;6.798;2022-12-10T07:00:14;-2.30;99.90
21830;DHT22;11077;50.264;6.798;2022-12-10T07:02:41;-2.30;99.90
21830;DHT22;11077;50.264;6.798;2022-12-10T07:05:08;-2.20;99.90
21830;DHT22;11077;50.264;6.798;2022-12-10T07:07:36;-2.30;99.90
21830;DHT22;11077;50.264;6.798;2022-12-10T07:10:04;-2.20;99.90
21830;DHT22;11077;50.264;6.798;2022-12-10T07:12:32;-2.20;99.90
21830;DHT22;11077;50.264;6.798;2022-12-10T07:15:00;-2.10;99.90
21830;DHT22;11077;50.264;6.798;2022-12-10T07:17:27;-2.20;99.90
21830;DHT22;11077;50.264;6.798;2022-12-10T07:19:54;-2.10;99.90
21830;DHT22;11077;50.264;6.798;2022-12-10T07:22:21;-2.20;99.90
21830;DHT22;11077;50.264;6.798;2022-12-10T07:24:49;-2.00;99.90
21830;DHT22;11077;50.264;6.798;2022-12-10T07:27:16;-2.10;99.90
21830;DHT22;11077;50.264;6.798;2022-12-10T07:29:45;-2.10;99.90
21830;DHT22;11077;50.264;6.798;2022-12-10T07:32:12;-2.20;99.90
21830;DHT22;11077;50.264;6.798;2022-12-10T07:34:40;-2.10;99.90
21830;DHT22;11077;50.264;6.798;2022-12-10T07:37:07;-2.00;99.90
21830;DHT22;11077;50.264;6.798;2022-12-10T07:39:34;-2.10;99.90
21830;DHT22;11077;50.264;6.798;2022-12-10T07:42:01;-2.10;99.90
21830;DHT22;11077;50.264;6.798;2022-12-10T07:44:29;-2.20;99.90
21830;DHT22;11077;50.264;6.798;2022-12-10T07:46:57;-2.10;99.90
21830;DHT22;11077;50.264;6.798;2022-12-10T07:49:25;-2.20;99.90
21830;DHT22;11077;50.264;6.798;2022-12-10T07:51:52;-2.10;99.90
21830;DHT22;11077;50.264;6.798;2022-12-10T07:54:19;-2.20;99.90
21830;DHT22;11077;50.264;6.798;2022-12-10T07:56:46;-2.10;99.90
21830;DHT22;11077;50.264;6.798;2022-12-10T07:59:13;-2.20;99.90
21830;DHT22;11077;50.264;6.798;2022-12-10T08:01:41;-2.10;99.90
21830;DHT22;11077;50.264;6.798;2022-12-10T08:04:10;-2.20;99.90
21830;DHT22;11077;50.264;6.798;2022-12-10T08:06:37;-2.20;99.90
21830;DHT22;11077;50.264;6.798;2022-12-10T08:09:04;-2.20;99.90
21830;DHT22;11077;50.264;6.798;2022-12-10T08:11:31;-2.10;99.90
21830;DHT22;11077;50.264;6.798;2022-12-10T08:13:58;-2.20;99.90
21830;DHT22;11077;50.264;6.798;2022-12-10T08:16:28;-2.20;99.90
21830;DHT22;11077;50.264;6.798;2022-12-10T08:18:59;-2.20;99.90
21830;DHT22;11077;50.264;6.798;2022-12-10T08:21:29;-2.20;99.90
21830;DHT22;11077;50.264;6.798;2022-12-10T08:23:57;-2.20;99.90
21830;DHT22;11077;50.264;6.798;2022-12-10T08:26:26;-2.20;99.90
21830;DHT22;11077;50.264;6.798;2022-12-10T08:28:55;-2.20;99.90
21830;DHT22;11077;50.264;6.798;2022-12-10T08:31:23;-2.10;99.90
21830;DHT22;11077;50.264;6.798;2022-12-10T08:33:50;-2.10;99.90
21830;DHT22;11077;50.264;6.798;2022-12-10T08:36:18;-2.10;99.90
21830;DHT22;11077;50.264;6.798;2022-12-10T08:38:47;-2.10;99.90
21830;DHT22;11077;50.264;6.798;2022-12-10T08:41:16;-2.10;99.90
21830;DHT22;11077;50.264;6.798;2022-12-10T08:43:44;-2.10;99.90
21830;DHT22;11077;50.264;6.798;2022-12-10T08:46:12;-2.10;99.90
21830;DHT22;11077;50.264;6.798;2022-12-10T08:48:40;-2.20;99.90
21830;DHT22;11077;50.264;6.798;2022-12-10T08:51:10;-2.10;99.90
21830;DHT22;11077;50.264;6.798;2022-12-10T08:53:37;-2.10;99.90
21830;DHT22;11077;50.264;6.798;2022-12-10T08:56:06;-2.20;99.90
21830;DHT22;11077;50.264;6.798;2022-12-10T08:58:34;-2.20;99.90
21830;DHT22;11077;50.264;6.798;2022-12-10T09:01:20;-2.10;99.90
21830;DHT22;11077;50.264;6.798;2022-12-10T09:03:47;-2.10;99.90
21830;DHT22;11077;50.264;6.798;2022-12-10T09:06:18;-2.10;99.90
21830;DHT22;11077;50.264;6.798;2022-12-10T09:08:45;-2.00;99.90
21830;DHT22;11077;50.264;6.798;2022-12-10T09:11:16;-2.10;99.90
21830;DHT22;11077;50.264;6.798;2022-12-10T09:13:44;-2.30;99.90
21830;DHT22;11077;50.264;6.798;2022-12-10T09:16:11;-2.30;99.90
21830;DHT22;11077;50.264;6.798;2022-12-10T09:18:39;-2.00;99.90
21830;DHT22;11077;50.264;6.798;2022-12-10T09:21:07;-2.20;99.90
21830;DHT22;11077;50.264;6.798;2022-12-10T09:23:35;-2.20;99.90
21830;DHT22;11077;50.264;6.798;2022-12-10T09:26:05;-2.10;99.90
21830;DHT22;11077;50.264;6.798;2022-12-10T09:28:34;-2.20;99.90
21830;DHT22;11077;50.264;6.798;2022-12-10T09:31:02;-2.10;99.90
21830;DHT22;11077;50.264;6.798;2022-12-10T09:33:30;-2.10;99.90
21830;DHT22;11077;50.264;6.798;2022-12-10T09:35:58;-2.10;99.90
21830;DHT22;11077;50.264;6.798;2022-12-10T09:38:26;-2.10;99.90
21830;DHT22;11077;50.264;6.798;2022-12-10T09:40:59;-2.00;99.90
21830;DHT22;11077;50.264;6.798;2022-12-10T09:43:40;-2.00;99.90
21830;DHT22;11077;50.264;6.798;2022-12-10T09:46:16;-2.00;99.90
21830;DHT22;11077;50.264;6.798;2022-12-10T09:48:54;-2.00;99.90
21830;DHT22;11077;50.264;6.798;2022-12-10T09:51:29;-1.90;99.90
21830;DHT22;11077;50.264;6.798;2022-12-10T09:53:59;-2.00;99.90
21830;DHT22;11077;50.264;6.798;2022-12-10T09:56:31;-1.90;99.90
21830;DHT22;11077;50.264;6.798;2022-12-10T09:59:06;-1.90;99.90
21830;DHT22;11077;50.264;6.798;2022-12-10T10:01:38;-1.90;99.90
21830;DHT22;11077;50.264;6.798;2022-12-10T10:04:05;-1.90;99.90
21830;DHT22;11077;50.264;6.798;2022-12-10T10:06:33;-1.90;99.90
21830;DHT22;11077;50.264;6.798;2022-12-10T10:09:02;-1.90;99.90
21830;DHT22;11077;50.264;6.798;2022-12-10T10:11:33;-1.80;99.90
21830;DHT22;11077;50.264;6.798;2022-12-10T10:14:06;-1.80;99.90
21830;DHT22;11077;50.264;6.798;2022-12-10T10:16:40;-1.80;99.90
21830;DHT22;11077;50.264;6.798;2022-12-10T10:19:13;-1.80;99.90
21830;DHT22;11077;50.264;6.798;2022-12-10T10:21:42;-1.90;99.90
21830;DHT22;11077;50.264;6.798;2022-12-10T10:24:14;-1.70;99.90
21830;DHT22;11077;50.264;6.798;2022-12-10T10:26:42;-1.70;99.90
21830;DHT22;11077;50.264;6.798;2022-12-10T10:29:13;-1.60;99.90
21830;DHT22;11077;50.264;6.798;2022-12-10T10:31:43;-1.70;99.90
21830;DHT22;11077;50.264;6.798;2022-12-10T10:34:15;-1.60;99.90
21830;DHT22;11077;50.264;6.798;2022-12-10T10:36:44;-1.70;99.90
21830;DHT22;11077;50.264;6.798;2022-12-10T10:39:23;-1.60;99.90
21830;DHT22;11077;50.264;6.798;2022-12-10T10:41:54;-1.50;99.90
21830;DHT22;11077;50.264;6.798;2022-12-10T10:44:25;-1.50;99.90
21830;DHT22;11077;50.264;6.798;2022-12-10T10:46:55;-1.40;99.90
21830;DHT22;11077;50.264;6.798;2022-12-10T10:49:24;-1.30;99.90
21830;DHT22;11077;50.264;6.798;2022-12-10T10:51:52;-1.20;99.90
21830;DHT22;11077;50.264;6.798;2022-12-10T10:54:33;-1.00;99.90
21830;DHT22;11077;50.264;6.798;2022-12-10T10:57:08;-1.00;99.90
21830;DHT22;11077;50.264;6.798;2022-12-10T10:59:39;-1.00;99.90
21830;DHT22;11077;50.264;6.798;2022-12-10T11:02:17;-0.80;99.90
21830;DHT22;11077;50.264;6.798;2022-12-10T11:04:48;-0.90;99.90
21830;DHT22;11077;50.264;6.798;2022-12-10T11:07:23;-0.80;99.90
21830;DHT22;11077;50.264;6.798;2022-12-10T11:09:53;-0.70;99.90
21830;DHT22;11077;50.264;6.798;2022-12-10T11:12:30;-0.80;99.90
21830;DHT22;11077;50.264;6.798;2022-12-10T11:15:03;-0.70;99.90
21830;DHT22;11077;50.264;6.798;2022-12-10T11:17:47;-0.90;99.90
21830;DHT22;11077;50.264;6.798;2022-12-10T11:20:18;-1.00;99.90
21830;DHT22;11077;50.264;6.798;2022-12-10T11:22:50;-1.10;99.90
21830;DHT22;11077;50.264;6.798;2022-12-10T11:25:19;-1.10;99.90
21830;DHT22;11077;50.264;6.798;2022-12-10T11:27:56;-1.30;99.90
21830;DHT22;11077;50.264;6.798;2022-12-10T11:30:29;-1.10;99.90
21830;DHT22;11077;50.264;6.798;2022-12-10T11:33:09;-1.10;99.90
21830;DHT22;11077;50.264;6.798;2022-12-10T11:35:50;-1.10;99.90
21830;DHT22;11077;50.264;6.798;2022-12-10T11:38:23;-1.00;99.90
21830;DHT22;11077;50.264;6.798;2022-12-10T11:40:57;-0.90;99.90
21830;DHT22;11077;50.264;6.798;2022-12-10T11:43:44;-0.70;99.90
21830;DHT22;11077;50.264;6.798;2022-12-10T11:46:29;-0.60;99.90
21830;DHT22;11077;50.264;6.798;2022-12-10T11:49:12;-0.50;99.90
21830;DHT22;11077;50.264;6.798;2022-12-10T11:51:49;-0.50;99.90
21830;DHT22;11077;50.264;6.798;2022-12-10T11:54:34;-0.40;99.90
21830;DHT22;11077;50.264;6.798;2022-12-10T11:57:09;-0.30;99.90
21830;DHT22;11077;50.264;6.798;2022-12-10T11:59:44;-0.20;99.90
21830;DHT22;11077;50.264;6.798;2022-12-10T12:02:39;-0.20;99.90
21830;DHT22;11077;50.264;6.798;2022-12-10T12:05:24;-0.30;99.90
21830;DHT22;11077;50.264;6.798;2022-12-10T12:07:58;-0.30;99.90
21830;DHT22;11077;50.264;6.798;2022-12-10T12:11:10;-0.20;99.90
21830;DHT22;11077;50.264;6.798;2022-12-10T12:13:43;-0.10;99.90
21830;DHT22;11077;50.264;6.798;2022-12-10T12:16:17;0.00;99.90
21830;DHT22;11077;50.264;6.798;2022-12-10T12:18:51;-0.10;99.90
21830;DHT22;11077;50.264;6.798;2022-12-10T12:21:21;0.00;99.90
21830;DHT22;11077;50.264;6.798;2022-12-10T12:23:52;0.00;99.90
21830;DHT22;11077;50.264;6.798;2022-12-10T12:26:26;0.10;99.90
21830;DHT22;11077;50.264;6.798;2022-12-10T12:28:58;0.10;99.90
21830;DHT22;11077;50.264;6.798;2022-12-10T12:31:31;0.10;99.90
21830;DHT22;11077;50.264;6.798;2022-12-10T12:34:05;0.10;99.90
21830;DHT22;11077;50.264;6.798;2022-12-10T12:36:38;0.20;99.90
21830;DHT22;11077;50.264;6.798;2022-12-10T12:39:12;0.20;99.90
21830;DHT22;11077;50.264;6.798;2022-12-10T12:41:43;0.20;99.90
21830;DHT22;11077;50.264;6.798;2022-12-10T12:44:18;0.30;99.90
21830;DHT22;11077;50.264;6.798;2022-12-10T12:46:47;0.30;99.90
21830;DHT22;11077;50.264;6.798;2022-12-10T12:49:22;0.20;99.90
21830;DHT22;11077;50.264;6.798;2022-12-10T12:51:54;0.20;99.90
21830;DHT22;11077;50.264;6.798;2022-12-10T12:54:23;0.20;99.90
21830;DHT22;11077;50.264;6.798;2022-12-10T12:57:01;0.20;99.90
21830;DHT22;11077;50.264;6.798;2022-12-10T12:59:48;0.20;99.90
21830;DHT22;11077;50.264;6.798;2022-12-10T13:02:22;0.20;99.90
21830;DHT22;11077;50.264;6.798;2022-12-10T13:04:52;0.20;99.90
21830;DHT22;11077;50.264;6.798;2022-12-10T13:07:31;0.20;99.90
21830;DHT22;11077;50.264;6.798;2022-12-10T13:10:23;0.20;99.90
21830;DHT22;11077;50.264;6.798;2022-12-10T13:13:06;0.20;99.90
21830;DHT22;11077;50.264;6.798;2022-12-10T13:15:36;0.10;99.90
21830;DHT22;11077;50.264;6.798;2022-12-10T13:18:22;0.10;99.90
21830;DHT22;11077;50.264;6.798;2022-12-10T13:21:30;0.10;99.90
21830;DHT22;11077;50.264;6.798;2022-12-10T13:24:11;0.10;99.90
21830;DHT22;11077;50.264;6.798;2022-12-10T13:29:26;0.00;99.90
21830;DHT22;11077;50.264;6.798;2022-12-10T13:31:57;-0.10;99.90
21830;DHT22;11077;50.264;6.798;2022-12-10T13:34:33;0.00;99.90
21830;DHT22;11077;50.264;6.798;2022-12-10T13:37:18;-0.10;99.90
21830;DHT22;11077;50.264;6.798;2022-12-10T13:39:59;-0.20;99.90
21830;DHT22;11077;50.264;6.798;2022-12-10T13:42:29;-0.20;99.90
21830;DHT22;11077;50.264;6.798;2022-12-10T13:45:33;-0.20;99.90
21830;DHT22;11077;50.264;6.798;2022-12-10T13:48:26;-0.20;99.90
21830;DHT22;11077;50.264;6.798;2022-12-10T13:51:26;-0.20;99.90
21830;DHT22;11077;50.264;6.798;2022-12-10T13:56:54;-0.20;99.90
21830;DHT22;11077;50.264;6.798;2022-12-10T13:59:33;-0.20;99.90
21830;DHT22;11077;50.264;6.798;2022-12-10T14:02:32;-0.20;99.90
21830;DHT22;11077;50.264;6.798;2022-12-10T14:05:19;-0.20;99.90
21830;DHT22;11077;50.264;6.798;2022-12-10T14:07:53;-0.20;99.90
21830;DHT22;11077;50.264;6.798;2022-12-10T14:10:26;-0.20;99.90
21830;DHT22;11077;50.264;6.798;2022-12-10T14:12:54;-0.30;99.90
21830;DHT22;11077;50.264;6.798;2022-12-10T14:15:24;-0.30;99.90
21830;DHT22;11077;50.264;6.798;2022-12-10T14:17:57;-0.30;99.90
21830;DHT22;11077;50.264;6.798;2022-12-10T14:20:26;-0.30;99.90
21830;DHT22;11077;50.264;6.798;2022-12-10T14:22:55;-0.30;99.90
21830;DHT22;11077;50.264;6.798;2022-12-10T14:25:46;-0.30;99.90
21830;DHT22;11077;50.264;6.798;2022-12-10T14:28:16;-0.30;99.90
21830;DHT22;11077;50.264;6.798;2022-12-10T14:30:44;-0.30;99.90
21830;DHT22;11077;50.264;6.798;2022-12-10T14:33:15;-0.30;99.90
21830;DHT22;11077;50.264;6.798;2022-12-10T14:35:46;-0.30;99.90
21830;DHT22;11077;50.264;6.798;2022-12-10T14:38:18;-0.30;99.90
21830;DHT22;11077;50.264;6.798;2022-12-10T14:40:48;-0.30;99.90
21830;DHT22;11077;50.264;6.798;2022-12-10T14:43:19;-0.30;99.90
21830;DHT22;11077;50.264;6.798;2022-12-10T14:45:50;-0.30;99.90
21830;DHT22;11077;50.264;6.798;2022-12-10T14:48:19;-0.30;99.90
21830;DHT22;11077;50.264;6.798;2022-12-10T14:50:47;-0.30;99.90
21830;DHT22;11077;50.264;6.798;2022-12-10T14:53:16;-0.30;99.90
21830;DHT22;11077;50.264;6.798;2022-12-10T14:55:45;-0.30;99.90
21830;DHT22;11077;50.264;6.798;2022-12-10T14:58:18;-0.30;99.90
21830;DHT22;11077;50.264;6.798;2022-12-10T15:00:48;-0.30;99.90
21830;DHT22;11077;50.264;6.798;2022-12-10T15:03:23;-0.40;99.90
21830;DHT22;11077;50.264;6.798;2022-12-10T15:05:55;-0.40;99.90
21830;DHT22;11077;50.264;6.798;2022-12-10T15:08:24;-0.40;99.90
21830;DHT22;11077;50.264;6.798;2022-12-10T15:10:55;-0.40;99.90
21830;DHT22;11077;50.264;6.798;2022-12-10T15:13:32;-0.40;99.90
21830;DHT22;11077;50.264;6.798;2022-12-10T15:16:00;-0.40;99.90
21830;DHT22;11077;50.264;6.798;2022-12-10T15:18:30;-0.40;99.90
21830;DHT22;11077;50.264;6.798;2022-12-10T15:21:10;-0.50;99.90
21830;DHT22;11077;50.264;6.798;2022-12-10T15:23:40;-0.50;99.90
21830;DHT22;11077;50.264;6.798;2022-12-10T15:26:15;-0.60;99.90
21830;DHT22;11077;50.264;6.798;2022-12-10T15:28:46;-0.70;99.90
21830;DHT22;11077;50.264;6.798;2022-12-10T15:31:19;-0.70;99.90
21830;DHT22;11077;50.264;6.798;2022-12-10T15:33:49;-0.80;99.90
21830;DHT22;11077;50.264;6.798;2022-12-10T15:36:25;-0.80;99.90
21830;DHT22;11077;50.264;6.798;2022-12-10T15:38:55;-0.80;99.90
21830;DHT22;11077;50.264;6.798;2022-12-10T15:41:39;-0.80;99.90
21830;DHT22;11077;50.264;6.798;2022-12-10T15:44:23;-0.80;99.90
21830;DHT22;11077;50.264;6.798;2022-12-10T15:46:57;-0.90;99.90
21830;DHT22;11077;50.264;6.798;2022-12-10T15:49:24;-1.00;99.90
21830;DHT22;11077;50.264;6.798;2022-12-10T15:51:51;-1.10;99.90
21830;DHT22;11077;50.264;6.798;2022-12-10T15:54:21;-1.00;99.90
21830;DHT22;11077;50.264;6.798;2022-12-10T15:56:48;-1.10;99.90
21830;DHT22;11077;50.264;6.798;2022-12-10T15:59:16;-1.10;99.90
21830;DHT22;11077;50.264;6.798;2022-12-10T16:01:45;-1.10;99.90
21830;DHT22;11077;50.264;6.798;2022-12-10T16:04:12;-1.10;99.90
21830;DHT22;11077;50.264;6.798;2022-12-10T16:06:40;-1.10;99.90